Terminal Aerodrome Forecast
Issued by NWS Mt. Holly, NJ

Home | Current Version | Previous Version | Text Only | Print | Product List | Glossary On
Versions: 1 2 3 4 5 6 7 8 9 10 11 12 13 14 15 16 17 18 19 20 21 22 23 24 25 26 27 28 29 30 31 32 33 34 35 36 37 38 39 40 41 42 43 44 45
000
FTUS41 KPHI 161320 AAA
TAFABE
TAF AMD
KABE 161320Z 1613/1712 00000KT 3SM BR SCT002
     FM161400 33004KT P6SM SCT250
     FM161700 33005KT P6SM BKN045
     FM162200 27004KT P6SM SCT050
     FM170700 00000KT 5SM BR FEW250
     FM171100 00000KT P6SM SCT050=

USA.gov is the U.S. government's official web portal to all federal, state and local government web resources and services.